createdAt,value
2023-02-09T00:01:35.101Z,102753.97
2023-02-09T00:04:05.151Z,102747.78
2023-02-09T00:06:34.795Z,102778.91
2023-02-09T00:09:04.445Z,102751.75
2023-02-09T00:11:47.509Z,102751.44
2023-02-09T00:14:22.422Z,102755.59
2023-02-09T00:16:52.845Z,102756.19
2023-02-09T00:19:24.484Z,102734.19
2023-02-09T00:21:54.166Z,102716.03
2023-02-09T00:24:24.195Z,102737.00
2023-02-09T00:26:54.349Z,102754.41
2023-02-09T00:29:26.588Z,102740.25
2023-02-09T00:31:56.306Z,102754.69
2023-02-09T00:34:26.003Z,102690.25
2023-02-09T00:36:58.028Z,102716.78
2023-02-09T00:39:27.785Z,102737.88
2023-02-09T00:42:11.181Z,102715.31
2023-02-09T00:44:43.688Z,102702.63
2023-02-09T00:47:13.308Z,102735.06
2023-02-09T00:49:43.333Z,102742.00
2023-02-09T00:52:13.039Z,102719.59
2023-02-09T00:54:43.103Z,102672.53
2023-02-09T00:57:12.935Z,102729.59
2023-02-09T00:59:45.180Z,102708.97
2023-02-09T01:02:14.776Z,102731.09
2023-02-09T01:04:44.527Z,102703.66
2023-02-09T01:07:14.192Z,102703.03
2023-02-09T01:09:43.842Z,102719.00
2023-02-09T01:12:13.443Z,102712.50
2023-02-09T01:14:46.067Z,102653.53
2023-02-09T01:17:15.806Z,102722.81
2023-02-09T01:19:45.611Z,102732.56
2023-02-09T01:22:16.430Z,102718.22
2023-02-09T01:24:47.838Z,102711.16
2023-02-09T01:27:19.393Z,102722.22
2023-02-09T01:29:51.606Z,102647.44
2023-02-09T01:32:21.424Z,102699.63
2023-02-09T01:34:53.266Z,102690.38
2023-02-09T01:37:23.335Z,102715.75
2023-02-09T01:39:53.011Z,102717.50
2023-02-09T01:42:23.696Z,102701.72
2023-02-09T01:45:27.423Z,102667.94
2023-02-09T01:48:03.466Z,102681.25
2023-02-09T01:50:36.819Z,102707.78
2023-02-09T01:53:06.767Z,102702.31
2023-02-09T01:55:39.608Z,102661.44
2023-02-09T01:58:13.242Z,102704.69
2023-02-09T02:00:46.945Z,102665.59
2023-02-09T02:03:21.092Z,102682.56
2023-02-09T02:05:55.610Z,102654.25
2023-02-09T02:08:30.699Z,102672.03
2023-02-09T02:11:01.123Z,102670.56
2023-02-09T02:13:30.748Z,102637.22
2023-02-09T02:16:09.505Z,102655.22
2023-02-09T02:18:58.278Z,102648.59
2023-02-09T02:22:08.836Z,102664.41
2023-02-09T02:25:08.236Z,102642.72
2023-02-09T02:27:46.595Z,102654.38
2023-02-09T02:30:44.380Z,102657.63
2023-02-09T02:33:30.929Z,102641.25
2023-02-09T02:36:08.438Z,102659.06
2023-02-09T02:38:42.528Z,102657.28
2023-02-09T02:41:17.413Z,102646.72
2023-02-09T02:43:58.291Z,102627.81
2023-02-09T02:46:31.267Z,102640.47
2023-02-09T02:49:07.967Z,102641.34
2023-02-09T02:51:40.757Z,102636.03
2023-02-09T02:54:15.076Z,102634.09
2023-02-09T02:56:47.179Z,102636.66
2023-02-09T02:59:21.475Z,102630.59
2023-02-09T03:01:58.516Z,102587.44
2023-02-09T03:04:33.105Z,102635.44
2023-02-09T03:07:02.979Z,102620.69
2023-02-09T03:09:32.642Z,102631.00
2023-02-09T03:12:12.532Z,102592.53
2023-02-09T03:14:45.887Z,102612.44
2023-02-09T03:17:26.023Z,102611.81
2023-02-09T03:20:07.203Z,102604.50
2023-02-09T03:22:39.999Z,102618.53
2023-02-09T03:25:15.301Z,102592.88
2023-02-09T03:27:50.556Z,102608.94
2023-02-09T03:30:21.306Z,102622.34
2023-02-09T03:32:51.124Z,102621.94
2023-02-09T03:35:23.638Z,102617.78
2023-02-09T03:37:53.582Z,102628.06
2023-02-09T03:40:23.585Z,102614.72
2023-02-09T03:42:53.578Z,102563.88
2023-02-09T03:45:23.194Z,102614.44
2023-02-09T03:47:52.889Z,102614.41
2023-02-09T03:50:25.152Z,102623.13
2023-02-09T03:52:54.786Z,102621.22
2023-02-09T03:55:24.435Z,102599.84
2023-02-09T03:57:54.253Z,102546.66
2023-02-09T04:00:24.236Z,102617.09
2023-02-09T04:02:53.921Z,102582.75
2023-02-09T04:05:26.138Z,102619.00
2023-02-09T04:07:55.752Z,102617.09
2023-02-09T04:10:25.417Z,102597.34
2023-02-09T04:12:55.016Z,102612.69
2023-02-09T04:15:24.626Z,102612.06
2023-02-09T04:17:54.245Z,102585.38
2023-02-09T04:20:26.430Z,102612.78
2023-02-09T04:22:56.039Z,102592.28
2023-02-09T04:25:25.659Z,102552.94
2023-02-09T04:27:55.309Z,102598.59
2023-02-09T04:30:24.932Z,102591.16
2023-02-09T04:32:54.840Z,102579.09
2023-02-09T04:35:27.236Z,102530.75
2023-02-09T04:37:56.888Z,102569.22
2023-02-09T04:40:26.499Z,102582.13
2023-02-09T04:42:56.174Z,102560.63
2023-02-09T04:45:25.794Z,102586.28
2023-02-09T04:47:55.467Z,102553.25
2023-02-09T04:50:27.906Z,102556.06
2023-02-09T04:52:57.486Z,102517.47
2023-02-09T04:55:27.091Z,102573.00
2023-02-09T04:58:09.371Z,102570.66
2023-02-09T05:00:38.995Z,102519.53
2023-02-09T05:03:08.653Z,102549.13
2023-02-09T05:05:41.757Z,102549.38
2023-02-09T05:08:11.785Z,102547.63
2023-02-09T05:10:41.447Z,102559.00
2023-02-09T05:13:11.018Z,102565.03
2023-02-09T05:15:40.727Z,102538.38
2023-02-09T05:18:10.396Z,102558.13
2023-02-09T05:20:43.190Z,102562.97
2023-02-09T05:23:13.415Z,102563.00
2023-02-09T05:25:43.184Z,102528.22
2023-02-09T05:28:12.949Z,102485.81
2023-02-09T05:30:42.658Z,102499.81
2023-02-09T05:33:12.306Z,102551.50
2023-02-09T05:35:44.555Z,102545.28
2023-02-09T05:38:14.162Z,102467.69
2023-02-09T05:40:45.213Z,102523.06
2023-02-09T05:43:15.073Z,102500.22
2023-02-09T05:45:44.701Z,102524.97
2023-02-09T05:48:14.408Z,102474.03
2023-02-09T05:50:47.030Z,102523.50
2023-02-09T05:53:18.712Z,102508.78
2023-02-09T05:55:49.824Z,102518.34
2023-02-09T05:58:19.417Z,102489.63
2023-02-09T06:00:49.087Z,102467.13
2023-02-09T06:03:18.821Z,102562.69
2023-02-09T06:05:51.071Z,102559.47
2023-02-09T06:08:20.778Z,102507.63
2023-02-09T06:10:50.361Z,102557.72
2023-02-09T06:13:19.956Z,102570.81
2023-02-09T06:15:49.637Z,102587.16
2023-02-09T06:18:19.259Z,102566.97
2023-02-09T06:20:51.430Z,102574.06
2023-02-09T06:23:21.047Z,102555.78
2023-02-09T06:25:53.164Z,102557.41
2023-02-09T06:28:22.906Z,102557.28
2023-02-09T06:30:53.338Z,102554.19
2023-02-09T06:33:23.531Z,102556.41
2023-02-09T06:35:55.766Z,102576.56
2023-02-09T06:38:25.591Z,102577.31
2023-02-09T06:40:55.194Z,102512.06
2023-02-09T06:43:24.800Z,102548.59
2023-02-09T06:45:54.429Z,102570.25
2023-02-09T06:48:24.148Z,102581.44
2023-02-09T06:50:56.516Z,102515.69
2023-02-09T06:53:26.156Z,102571.84
2023-02-09T06:55:55.786Z,102586.91
2023-02-09T06:58:25.446Z,102596.00
2023-02-09T07:00:55.074Z,102585.25
2023-02-09T07:03:24.726Z,102587.47
2023-02-09T07:05:57.005Z,102586.00
2023-02-09T07:08:26.699Z,102619.91
2023-02-09T07:10:56.310Z,102625.78
2023-02-09T07:13:25.997Z,102598.09
2023-02-09T07:15:59.638Z,102624.31
2023-02-09T07:18:30.103Z,102574.78
2023-02-09T07:21:03.886Z,102626.41
2023-02-09T07:23:33.858Z,102530.00
2023-02-09T07:26:07.125Z,102610.47
2023-02-09T07:28:38.320Z,102560.97
2023-02-09T07:31:10.372Z,102594.72
2023-02-09T07:33:40.512Z,102604.44
2023-02-09T07:36:14.950Z,102611.22
2023-02-09T07:38:44.847Z,102579.81
2023-02-09T07:41:18.160Z,102602.66
2023-02-09T07:43:48.182Z,102563.19
2023-02-09T07:46:19.375Z,102600.00
2023-02-09T07:48:49.087Z,102597.50
2023-02-09T07:51:25.490Z,102561.38
2023-02-09T07:53:55.391Z,102467.25
2023-02-09T07:56:25.410Z,102591.28
2023-02-09T07:58:56.209Z,102585.50
2023-02-09T08:01:27.412Z,102552.66
2023-02-09T08:03:57.229Z,102531.13
2023-02-09T08:06:42.043Z,102584.31
2023-02-09T08:09:13.372Z,102553.06
2023-02-09T08:11:46.537Z,102525.09
2023-02-09T08:14:20.363Z,102534.34
2023-02-09T08:16:51.882Z,102585.94
2023-02-09T08:19:25.551Z,102606.88
2023-02-09T08:21:57.851Z,102574.16
2023-02-09T08:24:27.533Z,102576.09
2023-02-09T08:26:58.038Z,102607.56
2023-02-09T08:29:27.918Z,102570.00
2023-02-09T08:31:57.617Z,102590.91
2023-02-09T08:34:27.350Z,102599.28
2023-02-09T08:36:59.629Z,102598.38
2023-02-09T08:39:29.324Z,102540.25
2023-02-09T08:41:59.016Z,102572.63
2023-02-09T08:44:28.732Z,102638.97
2023-02-09T08:46:58.513Z,102644.97
2023-02-09T08:49:28.278Z,102601.72
2023-02-09T08:52:00.535Z,102557.94
2023-02-09T08:54:30.208Z,102646.81
2023-02-09T08:57:00.043Z,102623.09
2023-02-09T08:59:30.256Z,102623.44
2023-02-09T09:02:00.011Z,102598.03
2023-02-09T09:04:29.676Z,102629.63
2023-02-09T09:07:01.856Z,102583.28
2023-02-09T09:09:31.534Z,102564.56
2023-02-09T09:12:01.330Z,102641.13
2023-02-09T09:14:31.868Z,102580.19
2023-02-09T09:17:01.936Z,102582.34
2023-02-09T09:19:31.869Z,102623.25
2023-02-09T09:22:04.328Z,102574.63
2023-02-09T09:24:40.430Z,102638.00
2023-02-09T09:27:11.506Z,102622.13
2023-02-09T09:29:42.835Z,102470.97
2023-02-09T09:32:15.513Z,102621.69
2023-02-09T09:34:46.154Z,102628.91
2023-02-09T09:37:18.472Z,102579.34
2023-02-09T09:39:48.201Z,102631.38
2023-02-09T09:42:25.816Z,102634.19
2023-02-09T09:44:56.932Z,102634.44
2023-02-09T09:47:37.324Z,102442.03
2023-02-09T09:50:13.743Z,102616.22
2023-02-09T09:52:49.839Z,102578.56
2023-02-09T09:55:26.133Z,102580.22
2023-02-09T09:57:57.745Z,102577.16
2023-02-09T10:00:29.635Z,102608.19
2023-02-09T10:02:59.375Z,102618.19
2023-02-09T10:05:31.159Z,102645.06
2023-02-09T10:08:08.095Z,102599.19
2023-02-09T10:10:48.512Z,102622.59
2023-02-09T10:13:24.316Z,102639.78
2023-02-09T10:15:57.104Z,102640.03
2023-02-09T10:18:27.917Z,102643.44
2023-02-09T10:20:59.582Z,102596.13
2023-02-09T10:23:41.055Z,102639.28
2023-02-09T10:26:24.365Z,102621.25
2023-02-09T10:28:56.058Z,102628.81
2023-02-09T10:31:29.363Z,102583.53
2023-02-09T10:34:01.685Z,102565.75
2023-02-09T10:36:34.422Z,102594.78
2023-02-09T10:39:18.360Z,102578.63
2023-02-09T10:41:51.108Z,102581.81
2023-02-09T10:44:26.750Z,102607.50
2023-02-09T10:47:13.318Z,102602.00
2023-02-09T10:49:43.102Z,102579.91
2023-02-09T10:52:21.987Z,102590.28
2023-02-09T10:54:56.589Z,102613.56
2023-02-09T10:57:29.460Z,102607.28
2023-02-09T11:00:01.175Z,102574.41
2023-02-09T11:02:39.215Z,102615.84
2023-02-09T11:05:29.801Z,102565.22
2023-02-09T11:08:06.242Z,102553.84
2023-02-09T11:10:43.187Z,102587.22
2023-02-09T11:13:25.088Z,102635.03
2023-02-09T11:16:39.290Z,102607.25
2023-02-09T11:19:20.043Z,102604.72
2023-02-09T11:22:02.291Z,102596.88
2023-02-09T11:24:54.015Z,102561.91
2023-02-09T11:27:37.056Z,102566.81
2023-02-09T11:30:18.318Z,102595.09
2023-02-09T11:32:52.817Z,102570.84
2023-02-09T11:35:26.736Z,102577.03
2023-02-09T11:38:01.700Z,102522.47
2023-02-09T11:40:37.199Z,102584.53
2023-02-09T11:43:23.455Z,102573.00
2023-02-09T11:45:55.076Z,102562.97
2023-02-09T11:48:27.572Z,102537.38
2023-02-09T11:51:06.315Z,102506.03
2023-02-09T11:53:45.303Z,102588.59
2023-02-09T11:56:17.513Z,102561.22
2023-02-09T11:58:57.758Z,102586.25
2023-02-09T12:01:38.487Z,102579.78
2023-02-09T12:04:17.980Z,102532.81
2023-02-09T12:06:51.603Z,102588.19
2023-02-09T12:09:31.778Z,102489.63
2023-02-09T12:12:10.869Z,102551.13
2023-02-09T12:15:07.122Z,102562.47
2023-02-09T12:17:46.576Z,102544.38
2023-02-09T12:20:26.283Z,102571.50
2023-02-09T12:23:04.614Z,102565.50
2023-02-09T12:25:38.502Z,102548.78
2023-02-09T12:28:21.800Z,102512.53
2023-02-09T12:31:11.160Z,102541.81
2023-02-09T12:33:42.616Z,102574.78
2023-02-09T12:36:28.631Z,102517.25
2023-02-09T12:39:05.343Z,102543.50
2023-02-09T12:42:05.294Z,102573.56
2023-02-09T12:44:41.898Z,102532.41
2023-02-09T12:47:41.417Z,102569.25
2023-02-09T12:50:27.029Z,102513.63
2023-02-09T12:53:26.982Z,102547.47
2023-02-09T12:56:06.029Z,102543.09
2023-02-09T12:58:40.795Z,102539.00
2023-02-09T13:01:10.557Z,102539.88
2023-02-09T13:03:45.953Z,102514.22
2023-02-09T13:06:29.119Z,102519.44
2023-02-09T13:09:02.056Z,102539.31
2023-02-09T13:11:35.399Z,102517.09
2023-02-09T13:14:09.739Z,102502.44
2023-02-09T13:17:08.958Z,102552.81
2023-02-09T13:20:03.188Z,102524.47
2023-02-09T13:22:52.687Z,102535.78
2023-02-09T13:25:33.025Z,102513.44
2023-02-09T13:28:11.832Z,102519.50
2023-02-09T13:30:41.756Z,102529.28
2023-02-09T13:33:25.681Z,102515.41
2023-02-09T13:36:09.045Z,102481.19
2023-02-09T13:38:46.234Z,102470.88
2023-02-09T13:41:28.918Z,102513.75
2023-02-09T13:43:58.583Z,102513.63
2023-02-09T13:46:31.544Z,102521.91
2023-02-09T13:49:13.924Z,102504.06
2023-02-09T13:51:43.676Z,102512.75
2023-02-09T13:54:22.765Z,102519.13
2023-02-09T13:56:52.418Z,102480.44
2023-02-09T13:59:22.318Z,102498.44
2023-02-09T14:01:52.277Z,102505.69
2023-02-09T14:04:25.553Z,102486.69
2023-02-09T14:07:01.666Z,102495.91
2023-02-09T14:09:41.695Z,102479.09
2023-02-09T14:12:18.271Z,102483.47
2023-02-09T14:15:10.951Z,102484.25
2023-02-09T14:17:40.642Z,102479.88
2023-02-09T14:20:24.671Z,102472.06
2023-02-09T14:22:59.427Z,102473.84
2023-02-09T14:25:33.511Z,102490.97
2023-02-09T14:28:03.555Z,102462.59
2023-02-09T14:30:36.485Z,102474.16
2023-02-09T14:33:07.830Z,102503.72
2023-02-09T14:35:41.775Z,102431.44
2023-02-09T14:38:37.822Z,102486.13
2023-02-09T14:41:36.465Z,102422.38
2023-02-09T14:44:20.748Z,102464.91
2023-02-09T14:46:52.496Z,102495.16
2023-02-09T14:49:23.387Z,102420.38
2023-02-09T14:52:02.016Z,102501.53
2023-02-09T14:54:34.422Z,102476.09
2023-02-09T14:57:06.712Z,102507.47
2023-02-09T14:59:36.385Z,102510.66
2023-02-09T15:02:19.370Z,102509.88
2023-02-09T15:04:49.526Z,102443.66
2023-02-09T15:07:24.788Z,102521.41
2023-02-09T15:09:54.608Z,102497.63
2023-02-09T15:12:31.018Z,102502.69
2023-02-09T15:15:02.942Z,102511.47
2023-02-09T15:17:34.139Z,102456.03
2023-02-09T15:20:03.952Z,102483.09
2023-02-09T15:22:33.706Z,102472.63
2023-02-09T15:25:03.438Z,102495.19
2023-02-09T15:27:42.142Z,102512.56
2023-02-09T15:30:20.564Z,102502.94
2023-02-09T15:32:50.320Z,102484.59
2023-02-09T15:35:22.479Z,102514.31
2023-02-09T15:37:55.143Z,102506.28
2023-02-09T15:40:39.249Z,102494.34
2023-02-09T15:43:32.540Z,102482.84
2023-02-09T15:46:14.809Z,102548.59
2023-02-09T15:48:44.741Z,102532.56
2023-02-09T15:51:14.700Z,102543.88
2023-02-09T15:53:48.913Z,102476.25
2023-02-09T16:12:48.313Z,102389.63
2023-02-09T16:53:17.243Z,102459.38
2023-02-09T16:59:44.159Z,102625.28
2023-02-09T17:02:39.725Z,102555.72
2023-02-09T17:05:19.805Z,102568.91
2023-02-09T17:07:55.350Z,102468.69
2023-02-09T17:10:37.183Z,102565.31
2023-02-09T17:13:07.313Z,102583.03
2023-02-09T17:15:43.931Z,102594.34
2023-02-09T17:18:18.754Z,102608.97
2023-02-09T17:20:52.447Z,102611.72
2023-02-09T17:23:25.041Z,102598.13
2023-02-09T17:25:57.761Z,102645.75
2023-02-09T17:28:29.664Z,102616.31
2023-02-09T17:31:01.579Z,102587.09
2023-02-09T17:33:34.067Z,102539.47
2023-02-09T17:38:55.733Z,102631.31
2023-02-09T17:41:37.130Z,102616.94
2023-02-09T17:44:29.056Z,102644.41
2023-02-09T17:47:06.749Z,102622.41
2023-02-09T17:49:36.609Z,102621.38
2023-02-09T17:52:06.582Z,102654.53
2023-02-09T17:54:36.311Z,102660.59
2023-02-09T17:57:08.609Z,102610.44
2023-02-09T17:59:38.312Z,102660.09
2023-02-09T18:02:16.828Z,102672.22
2023-02-09T18:04:46.964Z,102650.06
2023-02-09T18:07:20.589Z,102658.78
2023-02-09T18:09:51.956Z,102640.66
2023-02-09T18:12:26.676Z,102680.63
2023-02-09T18:14:56.519Z,102686.19
2023-02-09T18:17:26.203Z,102648.13
2023-02-09T18:19:57.395Z,102674.69
2023-02-09T18:22:27.579Z,102681.41
2023-02-09T18:25:00.250Z,102670.78
2023-02-09T18:27:32.604Z,102676.94
2023-02-09T18:30:02.314Z,102678.69
2023-02-09T18:32:32.010Z,102678.97
2023-02-09T18:35:02.244Z,102697.63
2023-02-09T18:37:31.921Z,102690.44
2023-02-09T18:40:01.598Z,102700.56
2023-02-09T18:42:34.232Z,102702.03
2023-02-09T18:45:04.116Z,102703.97
2023-02-09T18:47:34.200Z,102705.56
2023-02-09T18:50:03.863Z,102709.22
2023-02-09T18:52:34.707Z,102695.88
2023-02-09T18:55:04.764Z,102677.47
2023-02-09T18:57:37.029Z,102699.53
2023-02-09T19:00:07.918Z,102722.56
2023-02-09T19:02:37.811Z,102711.84
2023-02-09T19:05:08.075Z,102694.47
2023-02-09T19:07:38.512Z,102710.88
2023-02-09T19:10:09.994Z,102722.47
2023-02-09T19:12:44.007Z,102692.22
2023-02-09T19:15:14.580Z,102728.81
2023-02-09T19:17:44.694Z,102727.78
2023-02-09T19:20:16.073Z,102695.00
2023-02-09T19:22:47.519Z,102730.69
2023-02-09T19:25:17.189Z,102716.81
2023-02-09T19:27:50.061Z,102717.84
2023-02-09T19:30:24.876Z,102737.50
2023-02-09T19:32:56.565Z,102706.13
2023-02-09T19:35:28.110Z,102711.00
2023-02-09T19:37:59.293Z,102734.94
2023-02-09T19:40:36.311Z,102738.13
2023-02-09T19:43:09.088Z,102673.19
2023-02-09T19:45:39.792Z,102605.00
2023-02-09T19:48:11.187Z,102590.63
2023-02-09T19:50:41.320Z,102585.22
2023-02-09T19:53:12.269Z,102367.53
2023-02-09T19:55:42.284Z,102559.75
2023-02-09T19:58:14.933Z,102751.25
2023-02-09T20:00:45.317Z,102691.53
2023-02-09T20:03:17.295Z,102735.19
2023-02-09T20:05:51.517Z,102558.59
2023-02-09T20:08:28.065Z,102510.38
2023-02-09T20:11:02.474Z,102572.75
2023-02-09T20:13:37.989Z,102643.91
2023-02-09T20:16:15.561Z,102540.00
2023-02-09T20:18:50.892Z,102462.94
2023-02-09T20:21:29.293Z,102376.59
2023-02-09T20:24:00.459Z,102557.63
2023-02-09T20:26:33.639Z,102733.25
2023-02-09T20:29:07.662Z,102393.59
2023-02-09T20:31:42.028Z,102366.28
2023-02-09T20:34:23.839Z,102547.06
2023-02-09T20:36:58.280Z,102552.59
2023-02-09T20:39:28.566Z,102618.63
2023-02-09T20:42:15.134Z,102664.69
2023-02-09T20:45:00.310Z,102660.19
2023-02-09T20:47:30.326Z,102698.50
2023-02-09T20:50:00.706Z,102623.66
2023-02-09T20:52:31.320Z,102529.59
2023-02-09T20:55:01.133Z,102713.06
2023-02-09T20:57:33.736Z,102624.13
2023-02-09T21:00:09.964Z,102593.13
2023-02-09T21:02:54.214Z,102440.00
2023-02-09T21:05:42.661Z,102512.03
2023-02-09T21:08:22.807Z,102541.75
2023-02-09T21:11:17.300Z,102353.06
2023-02-09T21:13:47.997Z,102675.81
2023-02-09T21:16:20.635Z,102698.63
2023-02-09T21:18:50.748Z,102518.56
2023-02-09T21:21:23.173Z,102475.03
2023-02-09T21:24:03.869Z,102412.84
2023-02-09T21:26:52.146Z,102519.97
2023-02-09T21:29:32.108Z,102548.56
2023-02-09T21:32:25.071Z,102517.31
2023-02-09T21:35:29.392Z,102740.66
2023-02-09T21:38:25.735Z,102661.50
2023-02-09T21:44:17.143Z,102678.88
2023-02-09T21:46:55.266Z,102577.03
2023-02-09T21:49:42.082Z,102761.13
2023-02-09T21:52:12.644Z,102552.72
2023-02-09T21:54:47.450Z,102455.63
2023-02-09T21:57:30.018Z,102654.16
2023-02-09T22:00:19.853Z,102582.59
2023-02-09T22:03:05.403Z,102554.72
2023-02-09T22:06:11.761Z,102671.03
2023-02-09T22:08:41.593Z,102711.00
2023-02-09T22:11:11.340Z,102736.00
2023-02-09T22:13:41.053Z,102711.25
2023-02-09T22:16:12.446Z,102715.91
2023-02-09T22:18:42.136Z,102710.41
2023-02-09T22:21:14.580Z,102596.94
2023-02-09T22:23:44.689Z,102656.81
2023-02-09T22:26:15.510Z,102761.72
2023-02-09T22:28:46.758Z,102726.03
2023-02-09T22:31:19.510Z,102714.28
2023-02-09T22:33:53.295Z,102785.84
2023-02-09T22:36:26.125Z,102742.91
2023-02-09T22:38:55.870Z,102732.84
2023-02-09T22:41:26.770Z,102759.81
2023-02-09T22:43:58.414Z,102736.50
2023-02-09T22:46:31.487Z,102790.47
2023-02-09T22:49:02.995Z,102792.59
2023-02-09T22:51:36.532Z,102763.38
2023-02-09T22:54:07.958Z,102795.28
2023-02-09T22:56:37.676Z,102792.00
2023-02-09T22:59:07.340Z,102770.66
2023-02-09T23:01:37.377Z,102747.97
2023-02-09T23:04:07.315Z,102774.56
2023-02-09T23:06:39.813Z,102778.63
2023-02-09T23:09:10.672Z,102817.38
2023-02-09T23:11:40.365Z,102799.56
2023-02-09T23:14:11.154Z,102814.44
2023-02-09T23:16:42.471Z,102825.19
2023-02-09T23:19:15.357Z,102781.56
2023-02-09T23:21:50.843Z,102684.94
2023-02-09T23:24:24.575Z,102777.84
2023-02-09T23:26:54.531Z,102809.03
2023-02-09T23:29:24.876Z,102812.19
2023-02-09T23:31:55.132Z,102769.31
2023-02-09T23:34:25.860Z,102761.84
2023-02-09T23:37:04.983Z,102843.09
2023-02-09T23:39:43.017Z,102801.34
2023-02-09T23:42:12.707Z,102850.56
2023-02-09T23:44:42.369Z,102816.88
2023-02-09T23:47:12.127Z,102813.47
2023-02-09T23:49:41.848Z,102835.81
2023-02-09T23:52:14.048Z,102848.44
2023-02-09T23:54:43.955Z,102642.84
2023-02-09T23:57:13.640Z,102843.78
2023-02-09T23:59:43.359Z,102861.56
